Ne plus se rappeler de moi
Bonjour et Bienvenue
Pas de session ouverte
Samedi 31/01/2015
d:\inetpub\wwwroot\acrroussillon\reservation\ACR\IMAGES\IMG1.JPGd:\inetpub\wwwroot\acrroussillon\reservation\ACR\IMAGES\IMG2.JPGd:\inetpub\wwwroot\acrroussillon\reservation\ACR/IMAGES/IMG3.jpg
00:00:00
Horaires du 31/01/2015 (Données à titre indicatif seulement).
Lever du soleil : 08h04 - Coucher du soleil : 18h00 (Heure Locale)
Jour aéronautique : 07h34 - Nuit aéronautique : 18h30 (Heure Locale)
Planning des réservations des aéronefs
Planning des réservations des aéronefs
2015/01/31 22:00
LFMP 312200Z AUTO 30013KT 9999 // NSC 06/M00 Q0996
Planning des réservations des aéronefs
2015/01/31 18:15
TAF LFMP 311700Z 3118/0118 30018G29KT 9999 NSC
TEMPO 3118/0118 31028G38KT
Informations sur les aéronefs
Informations sur les aéronefs
Modifications des Types de vols
ATTENTION PLUS DE PAIEMENT EN LIGNE DEPUIS LA MAISON
AEROCLUB DU ROUSSILLON. AVENUE MAURICE BELLONTE. 66000 PERPIGNAN. Tel : 04.68.73.48.18 Fax : 09.55.16.18.97 Courriel : aeroclub-roussillon@hotmail.fr
 METAR / TAF
LIENS UTILES
envoyer un e-mail
d:\inetpub\wwwroot\acrroussillon\reservation\ACR/IMAGES/Logo.jpg
Identifiez vous pour interaction
d:\inetpub\wwwroot\acrroussillon\reservation\ACR/IMAGES/Logo.jpg
Aéro-Club du Roussillon